sensor_id;sensor_type;location;lat;lon;timestamp;temperature;humidity
56727;DHT22;42609;52.700;6.236;2022-07-24T00:01:10;18.90;99.90
56727;DHT22;42609;52.700;6.236;2022-07-24T00:03:35;18.90;99.90
56727;DHT22;42609;52.700;6.236;2022-07-24T00:06:01;18.90;99.90
56727;DHT22;42609;52.700;6.236;2022-07-24T00:08:29;18.90;99.90
56727;DHT22;42609;52.700;6.236;2022-07-24T00:10:55;18.80;99.90
56727;DHT22;42609;52.700;6.236;2022-07-24T00:13:20;18.80;99.90
56727;DHT22;42609;52.700;6.236;2022-07-24T00:15:46;18.80;99.90
56727;DHT22;42609;52.700;6.236;2022-07-24T00:18:11;18.80;99.90
56727;DHT22;42609;52.700;6.236;2022-07-24T00:20:37;18.80;99.90
56727;DHT22;42609;52.700;6.236;2022-07-24T00:23:03;18.80;99.90
56727;DHT22;42609;52.700;6.236;2022-07-24T00:25:28;18.80;99.90
56727;DHT22;42609;52.700;6.236;2022-07-24T00:27:54;18.70;99.90
56727;DHT22;42609;52.700;6.236;2022-07-24T00:30:20;18.70;99.90
56727;DHT22;42609;52.700;6.236;2022-07-24T00:32:45;18.70;99.90
56727;DHT22;42609;52.700;6.236;2022-07-24T00:35:11;18.70;99.90
56727;DHT22;42609;52.700;6.236;2022-07-24T00:37:38;18.70;99.90
56727;DHT22;42609;52.700;6.236;2022-07-24T00:40:04;18.60;99.90
56727;DHT22;42609;52.700;6.236;2022-07-24T00:42:30;18.60;99.90
56727;DHT22;42609;52.700;6.236;2022-07-24T00:44:56;18.60;99.90
56727;DHT22;42609;52.700;6.236;2022-07-24T00:47:21;18.60;99.90
56727;DHT22;42609;52.700;6.236;2022-07-24T00:49:47;18.60;99.90
56727;DHT22;42609;52.700;6.236;2022-07-24T00:52:13;18.60;99.90
56727;DHT22;42609;52.700;6.236;2022-07-24T00:54:39;18.60;99.90
56727;DHT22;42609;52.700;6.236;2022-07-24T00:57:05;18.50;99.90
56727;DHT22;42609;52.700;6.236;2022-07-24T00:59:30;18.50;99.90
56727;DHT22;42609;52.700;6.236;2022-07-24T01:01:56;18.60;99.90
56727;DHT22;42609;52.700;6.236;2022-07-24T01:04:21;18.50;99.90
56727;DHT22;42609;52.700;6.236;2022-07-24T01:06:48;18.50;99.90
56727;DHT22;42609;52.700;6.236;2022-07-24T01:09:14;18.50;99.90
56727;DHT22;42609;52.700;6.236;2022-07-24T01:11:40;18.40;99.90
56727;DHT22;42609;52.700;6.236;2022-07-24T01:14:06;18.40;99.90
56727;DHT22;42609;52.700;6.236;2022-07-24T01:16:33;18.40;99.90
56727;DHT22;42609;52.700;6.236;2022-07-24T01:18:59;18.40;99.90
56727;DHT22;42609;52.700;6.236;2022-07-24T01:21:24;18.30;99.90
56727;DHT22;42609;52.700;6.236;2022-07-24T01:23:50;18.30;99.90
56727;DHT22;42609;52.700;6.236;2022-07-24T01:26:16;18.30;99.90
56727;DHT22;42609;52.700;6.236;2022-07-24T01:28:42;18.30;99.90
56727;DHT22;42609;52.700;6.236;2022-07-24T01:31:08;18.30;99.90
56727;DHT22;42609;52.700;6.236;2022-07-24T01:33:34;18.30;99.90
56727;DHT22;42609;52.700;6.236;2022-07-24T01:35:59;18.30;99.90
56727;DHT22;42609;52.700;6.236;2022-07-24T01:38:25;18.30;99.90
56727;DHT22;42609;52.700;6.236;2022-07-24T01:40:51;18.30;99.90
56727;DHT22;42609;52.700;6.236;2022-07-24T01:43:16;18.20;99.90
56727;DHT22;42609;52.700;6.236;2022-07-24T01:45:42;18.20;99.90
56727;DHT22;42609;52.700;6.236;2022-07-24T01:48:08;18.20;99.90
56727;DHT22;42609;52.700;6.236;2022-07-24T01:50:33;18.20;99.90
56727;DHT22;42609;52.700;6.236;2022-07-24T01:52:59;18.20;99.90
56727;DHT22;42609;52.700;6.236;2022-07-24T01:55:27;18.20;99.90
56727;DHT22;42609;52.700;6.236;2022-07-24T01:57:52;18.20;99.90
56727;DHT22;42609;52.700;6.236;2022-07-24T02:00:18;18.10;99.90
56727;DHT22;42609;52.700;6.236;2022-07-24T02:02:44;18.10;99.90
56727;DHT22;42609;52.700;6.236;2022-07-24T02:05:12;18.10;99.90
56727;DHT22;42609;52.700;6.236;2022-07-24T02:07:39;18.10;99.90
56727;DHT22;42609;52.700;6.236;2022-07-24T02:10:06;18.10;99.90
56727;DHT22;42609;52.700;6.236;2022-07-24T02:12:32;18.10;99.90
56727;DHT22;42609;52.700;6.236;2022-07-24T02:14:57;18.10;99.90
56727;DHT22;42609;52.700;6.236;2022-07-24T02:17:23;18.10;99.90
56727;DHT22;42609;52.700;6.236;2022-07-24T02:19:48;18.10;99.90
56727;DHT22;42609;52.700;6.236;2022-07-24T02:22:14;18.10;99.90
56727;DHT22;42609;52.700;6.236;2022-07-24T02:24:39;18.10;99.90
56727;DHT22;42609;52.700;6.236;2022-07-24T02:27:05;18.10;99.90
56727;DHT22;42609;52.700;6.236;2022-07-24T02:29:31;18.10;99.90
56727;DHT22;42609;52.700;6.236;2022-07-24T02:31:56;18.00;99.90
56727;DHT22;42609;52.700;6.236;2022-07-24T02:34:22;18.00;99.90
56727;DHT22;42609;52.700;6.236;2022-07-24T02:36:47;18.00;99.90
56727;DHT22;42609;52.700;6.236;2022-07-24T02:39:13;18.00;99.90
56727;DHT22;42609;52.700;6.236;2022-07-24T02:41:38;18.00;99.90
56727;DHT22;42609;52.700;6.236;2022-07-24T02:44:04;17.90;99.90
56727;DHT22;42609;52.700;6.236;2022-07-24T02:46:29;17.90;99.90
56727;DHT22;42609;52.700;6.236;2022-07-24T02:48:55;17.90;99.90
56727;DHT22;42609;52.700;6.236;2022-07-24T02:51:20;17.90;99.90
56727;DHT22;42609;52.700;6.236;2022-07-24T02:53:46;17.90;99.90
56727;DHT22;42609;52.700;6.236;2022-07-24T02:56:12;17.90;99.90
56727;DHT22;42609;52.700;6.236;2022-07-24T02:58:37;17.90;99.90
56727;DHT22;42609;52.700;6.236;2022-07-24T03:01:03;17.90;99.90
56727;DHT22;42609;52.700;6.236;2022-07-24T03:03:29;17.80;99.90
56727;DHT22;42609;52.700;6.236;2022-07-24T03:05:54;17.80;99.90
56727;DHT22;42609;52.700;6.236;2022-07-24T03:08:20;17.90;99.90
56727;DHT22;42609;52.700;6.236;2022-07-24T03:10:45;17.80;99.90
56727;DHT22;42609;52.700;6.236;2022-07-24T03:13:11;17.80;99.90
56727;DHT22;42609;52.700;6.236;2022-07-24T03:15:37;17.80;99.90
56727;DHT22;42609;52.700;6.236;2022-07-24T03:18:03;17.80;99.90
56727;DHT22;42609;52.700;6.236;2022-07-24T03:20:29;17.80;99.90
56727;DHT22;42609;52.700;6.236;2022-07-24T03:22:56;17.80;99.90
56727;DHT22;42609;52.700;6.236;2022-07-24T03:25:22;17.80;99.90
56727;DHT22;42609;52.700;6.236;2022-07-24T03:27:48;17.70;99.90
56727;DHT22;42609;52.700;6.236;2022-07-24T03:30:14;17.70;99.90
56727;DHT22;42609;52.700;6.236;2022-07-24T03:32:40;17.70;99.90
56727;DHT22;42609;52.700;6.236;2022-07-24T03:35:06;17.70;99.90
56727;DHT22;42609;52.700;6.236;2022-07-24T03:37:33;17.70;99.90
56727;DHT22;42609;52.700;6.236;2022-07-24T03:39:59;17.80;99.90
56727;DHT22;42609;52.700;6.236;2022-07-24T03:42:25;17.80;99.90
56727;DHT22;42609;52.700;6.236;2022-07-24T03:44:50;17.80;99.90
56727;DHT22;42609;52.700;6.236;2022-07-24T03:47:16;17.70;99.90
56727;DHT22;42609;52.700;6.236;2022-07-24T03:49:42;17.70;99.90
56727;DHT22;42609;52.700;6.236;2022-07-24T03:52:07;17.70;99.90
56727;DHT22;42609;52.700;6.236;2022-07-24T03:54:33;17.70;99.90
56727;DHT22;42609;52.700;6.236;2022-07-24T03:56:58;17.70;99.90
56727;DHT22;42609;52.700;6.236;2022-07-24T03:59:24;17.70;99.90
56727;DHT22;42609;52.700;6.236;2022-07-24T04:01:49;17.70;99.90
56727;DHT22;42609;52.700;6.236;2022-07-24T04:04:15;17.70;99.90
56727;DHT22;42609;52.700;6.236;2022-07-24T04:06:41;17.70;99.90
56727;DHT22;42609;52.700;6.236;2022-07-24T04:09:07;17.80;99.90
56727;DHT22;42609;52.700;6.236;2022-07-24T04:11:33;17.80;99.90
56727;DHT22;42609;52.700;6.236;2022-07-24T04:13:59;17.80;99.90
56727;DHT22;42609;52.700;6.236;2022-07-24T04:16:24;17.80;99.90
56727;DHT22;42609;52.700;6.236;2022-07-24T04:18:50;17.80;99.90
56727;DHT22;42609;52.700;6.236;2022-07-24T04:21:16;17.80;99.90
56727;DHT22;42609;52.700;6.236;2022-07-24T04:23:42;17.80;99.90
56727;DHT22;42609;52.700;6.236;2022-07-24T04:26:07;17.80;99.90
56727;DHT22;42609;52.700;6.236;2022-07-24T04:28:33;17.80;99.90
56727;DHT22;42609;52.700;6.236;2022-07-24T04:30:59;17.90;99.90
56727;DHT22;42609;52.700;6.236;2022-07-24T04:33:24;17.90;99.90
56727;DHT22;42609;52.700;6.236;2022-07-24T04:35:50;17.90;99.90
56727;DHT22;42609;52.700;6.236;2022-07-24T04:38:16;17.90;99.90
56727;DHT22;42609;52.700;6.236;2022-07-24T04:40:43;17.80;99.90
56727;DHT22;42609;52.700;6.236;2022-07-24T04:43:09;17.90;99.90
56727;DHT22;42609;52.700;6.236;2022-07-24T04:45:35;17.90;99.90
56727;DHT22;42609;52.700;6.236;2022-07-24T04:48:00;17.90;99.90
56727;DHT22;42609;52.700;6.236;2022-07-24T04:50:26;18.00;99.90
56727;DHT22;42609;52.700;6.236;2022-07-24T04:52:51;18.00;99.90
56727;DHT22;42609;52.700;6.236;2022-07-24T04:55:17;18.00;99.90
56727;DHT22;42609;52.700;6.236;2022-07-24T04:57:43;18.10;99.90
56727;DHT22;42609;52.700;6.236;2022-07-24T05:00:11;18.10;99.90
56727;DHT22;42609;52.700;6.236;2022-07-24T05:02:37;18.10;99.90
56727;DHT22;42609;52.700;6.236;2022-07-24T05:05:04;18.10;99.90
56727;DHT22;42609;52.700;6.236;2022-07-24T05:07:29;18.10;99.90
56727;DHT22;42609;52.700;6.236;2022-07-24T05:09:55;18.20;99.90
56727;DHT22;42609;52.700;6.236;2022-07-24T05:12:21;18.30;99.90
56727;DHT22;42609;52.700;6.236;2022-07-24T05:14:47;18.50;99.90
56727;DHT22;42609;52.700;6.236;2022-07-24T05:17:12;18.50;99.90
56727;DHT22;42609;52.700;6.236;2022-07-24T05:19:38;18.70;99.90
56727;DHT22;42609;52.700;6.236;2022-07-24T05:22:03;18.80;99.90
56727;DHT22;42609;52.700;6.236;2022-07-24T05:24:29;19.00;99.90
56727;DHT22;42609;52.700;6.236;2022-07-24T05:26:54;19.10;99.90
56727;DHT22;42609;52.700;6.236;2022-07-24T05:29:20;19.10;99.90
56727;DHT22;42609;52.700;6.236;2022-07-24T05:31:46;19.20;99.90
56727;DHT22;42609;52.700;6.236;2022-07-24T05:34:12;19.40;99.90
56727;DHT22;42609;52.700;6.236;2022-07-24T05:36:37;19.50;99.90
56727;DHT22;42609;52.700;6.236;2022-07-24T05:39:04;19.70;99.90
56727;DHT22;42609;52.700;6.236;2022-07-24T05:41:29;19.80;99.90
56727;DHT22;42609;52.700;6.236;2022-07-24T05:43:55;19.90;99.90
56727;DHT22;42609;52.700;6.236;2022-07-24T05:46:20;20.10;99.90
56727;DHT22;42609;52.700;6.236;2022-07-24T05:48:46;20.20;99.90
56727;DHT22;42609;52.700;6.236;2022-07-24T05:51:12;20.30;99.90
56727;DHT22;42609;52.700;6.236;2022-07-24T05:53:37;20.40;99.90
56727;DHT22;42609;52.700;6.236;2022-07-24T05:56:03;20.50;99.90
56727;DHT22;42609;52.700;6.236;2022-07-24T05:58:29;20.60;99.90
56727;DHT22;42609;52.700;6.236;2022-07-24T06:00:55;20.60;99.90
56727;DHT22;42609;52.700;6.236;2022-07-24T06:03:21;20.70;99.90
56727;DHT22;42609;52.700;6.236;2022-07-24T06:05:46;20.90;99.90
56727;DHT22;42609;52.700;6.236;2022-07-24T06:08:12;20.80;99.90
56727;DHT22;42609;52.700;6.236;2022-07-24T06:10:37;20.90;99.90
56727;DHT22;42609;52.700;6.236;2022-07-24T06:13:03;20.90;99.90
56727;DHT22;42609;52.700;6.236;2022-07-24T06:15:29;21.00;99.90
56727;DHT22;42609;52.700;6.236;2022-07-24T06:17:55;21.20;99.90
56727;DHT22;42609;52.700;6.236;2022-07-24T06:20:20;21.20;99.90
56727;DHT22;42609;52.700;6.236;2022-07-24T06:22:46;21.30;99.90
56727;DHT22;42609;52.700;6.236;2022-07-24T06:25:12;21.40;99.90
56727;DHT22;42609;52.700;6.236;2022-07-24T06:27:48;21.40;99.90
56727;DHT22;42609;52.700;6.236;2022-07-24T06:30:15;21.50;99.90
56727;DHT22;42609;52.700;6.236;2022-07-24T06:32:42;21.60;99.90
56727;DHT22;42609;52.700;6.236;2022-07-24T06:35:08;21.70;99.90
56727;DHT22;42609;52.700;6.236;2022-07-24T06:37:34;21.80;99.90
56727;DHT22;42609;52.700;6.236;2022-07-24T06:40:00;21.90;99.90
56727;DHT22;42609;52.700;6.236;2022-07-24T06:42:25;21.90;99.90
56727;DHT22;42609;52.700;6.236;2022-07-24T06:44:51;21.90;99.90
56727;DHT22;42609;52.700;6.236;2022-07-24T06:47:16;22.00;99.90
56727;DHT22;42609;52.700;6.236;2022-07-24T06:49:42;22.10;99.90
56727;DHT22;42609;52.700;6.236;2022-07-24T06:52:08;22.10;99.90
56727;DHT22;42609;52.700;6.236;2022-07-24T06:54:33;22.10;99.90
56727;DHT22;42609;52.700;6.236;2022-07-24T06:56:59;22.30;99.90
56727;DHT22;42609;52.700;6.236;2022-07-24T06:59:24;22.30;99.90
56727;DHT22;42609;52.700;6.236;2022-07-24T07:01:50;22.40;99.90
56727;DHT22;42609;52.700;6.236;2022-07-24T07:04:17;22.50;99.90
56727;DHT22;42609;52.700;6.236;2022-07-24T07:06:42;22.50;99.90
56727;DHT22;42609;52.700;6.236;2022-07-24T07:09:08;22.60;99.90
56727;DHT22;42609;52.700;6.236;2022-07-24T07:11:33;22.60;99.90
56727;DHT22;42609;52.700;6.236;2022-07-24T07:13:59;22.70;99.90
56727;DHT22;42609;52.700;6.236;2022-07-24T07:16:24;22.80;99.90
56727;DHT22;42609;52.700;6.236;2022-07-24T07:18:50;23.00;99.90
56727;DHT22;42609;52.700;6.236;2022-07-24T07:21:16;23.10;99.90
56727;DHT22;42609;52.700;6.236;2022-07-24T07:23:41;23.20;99.90
56727;DHT22;42609;52.700;6.236;2022-07-24T07:26:07;23.20;99.90
56727;DHT22;42609;52.700;6.236;2022-07-24T07:28:32;23.30;99.90
56727;DHT22;42609;52.700;6.236;2022-07-24T07:30:58;23.40;99.90
56727;DHT22;42609;52.700;6.236;2022-07-24T07:33:23;23.50;99.90
56727;DHT22;42609;52.700;6.236;2022-07-24T07:35:49;23.60;99.90
56727;DHT22;42609;52.700;6.236;2022-07-24T07:38:15;23.70;99.90
56727;DHT22;42609;52.700;6.236;2022-07-24T07:40:40;23.80;99.90
56727;DHT22;42609;52.700;6.236;2022-07-24T07:43:06;23.90;99.90
56727;DHT22;42609;52.700;6.236;2022-07-24T07:45:32;23.90;99.90
56727;DHT22;42609;52.700;6.236;2022-07-24T07:47:57;23.90;99.90
56727;DHT22;42609;52.700;6.236;2022-07-24T07:50:23;24.00;99.90
56727;DHT22;42609;52.700;6.236;2022-07-24T07:52:48;24.20;99.10
56727;DHT22;42609;52.700;6.236;2022-07-24T07:55:14;24.40;98.60
56727;DHT22;42609;52.700;6.236;2022-07-24T07:57:40;24.40;98.20
56727;DHT22;42609;52.700;6.236;2022-07-24T08:00:08;24.50;97.50
56727;DHT22;42609;52.700;6.236;2022-07-24T08:02:33;24.50;97.10
56727;DHT22;42609;52.700;6.236;2022-07-24T08:04:59;24.60;96.70
56727;DHT22;42609;52.700;6.236;2022-07-24T08:07:24;24.60;96.30
56727;DHT22;42609;52.700;6.236;2022-07-24T08:09:50;24.60;96.20
56727;DHT22;42609;52.700;6.236;2022-07-24T08:12:15;24.80;95.90
56727;DHT22;42609;52.700;6.236;2022-07-24T08:14:41;25.00;95.70
56727;DHT22;42609;52.700;6.236;2022-07-24T08:17:06;25.20;95.70
56727;DHT22;42609;52.700;6.236;2022-07-24T08:19:32;25.50;95.90
56727;DHT22;42609;52.700;6.236;2022-07-24T08:21:58;25.70;95.50
56727;DHT22;42609;52.700;6.236;2022-07-24T08:24:23;25.60;95.10
56727;DHT22;42609;52.700;6.236;2022-07-24T08:26:49;25.60;94.90
56727;DHT22;42609;52.700;6.236;2022-07-24T08:29:16;25.60;94.30
56727;DHT22;42609;52.700;6.236;2022-07-24T08:31:42;25.70;94.80
56727;DHT22;42609;52.700;6.236;2022-07-24T08:34:08;25.80;94.70
56727;DHT22;42609;52.700;6.236;2022-07-24T08:36:34;25.70;94.30
56727;DHT22;42609;52.700;6.236;2022-07-24T08:39:00;25.50;94.10
56727;DHT22;42609;52.700;6.236;2022-07-24T08:41:30;25.40;93.70
56727;DHT22;42609;52.700;6.236;2022-07-24T08:43:58;25.20;93.80
56727;DHT22;42609;52.700;6.236;2022-07-24T08:46:25;25.30;94.60
56727;DHT22;42609;52.700;6.236;2022-07-24T08:48:52;25.40;94.40
56727;DHT22;42609;52.700;6.236;2022-07-24T08:51:19;25.40;93.90
56727;DHT22;42609;52.700;6.236;2022-07-24T08:53:45;25.50;93.40
56727;DHT22;42609;52.700;6.236;2022-07-24T08:56:12;25.60;93.50
56727;DHT22;42609;52.700;6.236;2022-07-24T08:58:39;25.70;93.40
56727;DHT22;42609;52.700;6.236;2022-07-24T09:01:05;25.90;93.80
56727;DHT22;42609;52.700;6.236;2022-07-24T09:03:39;26.10;93.50
56727;DHT22;42609;52.700;6.236;2022-07-24T09:06:07;26.20;92.40
56727;DHT22;42609;52.700;6.236;2022-07-24T09:08:33;26.20;91.50
56727;DHT22;42609;52.700;6.236;2022-07-24T09:11:01;26.30;91.90
56727;DHT22;42609;52.700;6.236;2022-07-24T09:13:31;26.40;91.80
56727;DHT22;42609;52.700;6.236;2022-07-24T09:16:24;26.40;90.80
56727;DHT22;42609;52.700;6.236;2022-07-24T09:19:02;26.60;90.60
56727;DHT22;42609;52.700;6.236;2022-07-24T09:21:32;26.60;90.40
56727;DHT22;42609;52.700;6.236;2022-07-24T09:23:58;26.70;90.00
56727;DHT22;42609;52.700;6.236;2022-07-24T09:26:52;26.80;90.00
56727;DHT22;42609;52.700;6.236;2022-07-24T09:29:19;26.90;88.20
56727;DHT22;42609;52.700;6.236;2022-07-24T09:32:07;26.90;88.70
56727;DHT22;42609;52.700;6.236;2022-07-24T09:34:39;27.00;89.20
56727;DHT22;42609;52.700;6.236;2022-07-24T09:37:07;27.00;86.90
56727;DHT22;42609;52.700;6.236;2022-07-24T09:39:34;27.10;87.40
56727;DHT22;42609;52.700;6.236;2022-07-24T09:42:02;27.00;86.40
56727;DHT22;42609;52.700;6.236;2022-07-24T09:44:28;26.80;86.10
56727;DHT22;42609;52.700;6.236;2022-07-24T09:47:04;26.80;86.10
56727;DHT22;42609;52.700;6.236;2022-07-24T09:49:30;26.80;86.70
56727;DHT22;42609;52.700;6.236;2022-07-24T09:52:14;26.90;86.50
56727;DHT22;42609;52.700;6.236;2022-07-24T09:54:46;26.90;87.20
56727;DHT22;42609;52.700;6.236;2022-07-24T09:57:26;27.00;87.10
56727;DHT22;42609;52.700;6.236;2022-07-24T10:02:25;27.20;86.90
56727;DHT22;42609;52.700;6.236;2022-07-24T10:04:52;27.30;87.90
56727;DHT22;42609;52.700;6.236;2022-07-24T10:07:20;27.40;86.30
56727;DHT22;42609;52.700;6.236;2022-07-24T10:09:48;27.40;85.70
56727;DHT22;42609;52.700;6.236;2022-07-24T10:12:16;27.40;84.00
56727;DHT22;42609;52.700;6.236;2022-07-24T10:14:44;27.30;82.50
56727;DHT22;42609;52.700;6.236;2022-07-24T10:17:11;27.40;81.50
56727;DHT22;42609;52.700;6.236;2022-07-24T10:22:10;27.40;83.00
56727;DHT22;42609;52.700;6.236;2022-07-24T10:27:33;27.60;83.10
56727;DHT22;42609;52.700;6.236;2022-07-24T10:30:02;27.50;81.80
56727;DHT22;42609;52.700;6.236;2022-07-24T10:32:30;27.40;80.90
56727;DHT22;42609;52.700;6.236;2022-07-24T10:40:27;27.50;81.10
56727;DHT22;42609;52.700;6.236;2022-07-24T11:01:45;28.10;80.60
56727;DHT22;42609;52.700;6.236;2022-07-24T11:09:18;28.10;79.30
56727;DHT22;42609;52.700;6.236;2022-07-24T11:16:49;28.30;78.40
56727;DHT22;42609;52.700;6.236;2022-07-24T11:21:43;28.10;77.50
56727;DHT22;42609;52.700;6.236;2022-07-24T11:26:58;28.30;78.00
56727;DHT22;42609;52.700;6.236;2022-07-24T11:29:30;28.30;78.40
56727;DHT22;42609;52.700;6.236;2022-07-24T11:32:01;28.40;76.90
56727;DHT22;42609;52.700;6.236;2022-07-24T11:34:28;28.40;75.20
56727;DHT22;42609;52.700;6.236;2022-07-24T11:36:55;28.40;75.60
56727;DHT22;42609;52.700;6.236;2022-07-24T11:41:59;28.60;75.40
56727;DHT22;42609;52.700;6.236;2022-07-24T11:44:46;28.60;74.10
56727;DHT22;42609;52.700;6.236;2022-07-24T11:49:45;28.60;72.80
56727;DHT22;42609;52.700;6.236;2022-07-24T11:54:43;28.70;72.80
56727;DHT22;42609;52.700;6.236;2022-07-24T11:57:21;28.60;72.20
56727;DHT22;42609;52.700;6.236;2022-07-24T11:59:49;28.80;73.30
56727;DHT22;42609;52.700;6.236;2022-07-24T12:02:15;29.00;72.50
56727;DHT22;42609;52.700;6.236;2022-07-24T12:04:41;29.00;72.70
56727;DHT22;42609;52.700;6.236;2022-07-24T12:07:09;29.00;72.30
56727;DHT22;42609;52.700;6.236;2022-07-24T12:12:25;29.10;73.30
56727;DHT22;42609;52.700;6.236;2022-07-24T12:15:03;29.10;72.40
56727;DHT22;42609;52.700;6.236;2022-07-24T12:17:30;29.20;71.40
56727;DHT22;42609;52.700;6.236;2022-07-24T12:19:57;29.20;71.90
56727;DHT22;42609;52.700;6.236;2022-07-24T12:22:24;29.30;71.70
56727;DHT22;42609;52.700;6.236;2022-07-24T12:24:51;29.20;71.00
56727;DHT22;42609;52.700;6.236;2022-07-24T12:27:43;29.30;71.90
56727;DHT22;42609;52.700;6.236;2022-07-24T12:30:30;29.40;69.40
56727;DHT22;42609;52.700;6.236;2022-07-24T12:33:03;29.40;69.50
56727;DHT22;42609;52.700;6.236;2022-07-24T12:35:31;29.50;70.70
56727;DHT22;42609;52.700;6.236;2022-07-24T12:37:58;29.40;69.20
56727;DHT22;42609;52.700;6.236;2022-07-24T12:40:35;29.50;69.30
56727;DHT22;42609;52.700;6.236;2022-07-24T12:43:07;29.50;69.70
56727;DHT22;42609;52.700;6.236;2022-07-24T12:45:34;29.40;68.70
56727;DHT22;42609;52.700;6.236;2022-07-24T12:48:07;29.60;69.50
56727;DHT22;42609;52.700;6.236;2022-07-24T12:50:33;29.60;70.30
56727;DHT22;42609;52.700;6.236;2022-07-24T12:53:06;29.70;69.20
56727;DHT22;42609;52.700;6.236;2022-07-24T12:55:32;29.60;68.40
56727;DHT22;42609;52.700;6.236;2022-07-24T12:58:00;29.70;68.00
56727;DHT22;42609;52.700;6.236;2022-07-24T13:00:25;29.70;66.80
56727;DHT22;42609;52.700;6.236;2022-07-24T13:02:51;29.70;67.40
56727;DHT22;42609;52.700;6.236;2022-07-24T13:05:36;29.70;67.60
56727;DHT22;42609;52.700;6.236;2022-07-24T13:08:01;29.70;67.00
56727;DHT22;42609;52.700;6.236;2022-07-24T13:10:27;29.70;66.40
56727;DHT22;42609;52.700;6.236;2022-07-24T13:12:52;29.80;66.60
56727;DHT22;42609;52.700;6.236;2022-07-24T13:15:18;29.80;67.90
56727;DHT22;42609;52.700;6.236;2022-07-24T13:17:44;29.80;66.80
56727;DHT22;42609;52.700;6.236;2022-07-24T13:20:09;30.00;66.30
56727;DHT22;42609;52.700;6.236;2022-07-24T13:22:35;29.90;66.00
56727;DHT22;42609;52.700;6.236;2022-07-24T13:25:01;29.90;66.20
56727;DHT22;42609;52.700;6.236;2022-07-24T13:27:27;30.00;67.00
56727;DHT22;42609;52.700;6.236;2022-07-24T13:29:52;30.00;66.20
56727;DHT22;42609;52.700;6.236;2022-07-24T13:32:18;30.00;66.70
56727;DHT22;42609;52.700;6.236;2022-07-24T13:34:43;30.00;66.20
56727;DHT22;42609;52.700;6.236;2022-07-24T13:37:09;30.00;66.20
56727;DHT22;42609;52.700;6.236;2022-07-24T13:39:35;30.10;66.10
56727;DHT22;42609;52.700;6.236;2022-07-24T13:42:02;30.10;66.10
56727;DHT22;42609;52.700;6.236;2022-07-24T13:44:28;30.00;66.60
56727;DHT22;42609;52.700;6.236;2022-07-24T13:46:54;30.10;67.20
56727;DHT22;42609;52.700;6.236;2022-07-24T13:49:20;30.20;67.00
56727;DHT22;42609;52.700;6.236;2022-07-24T13:51:46;30.30;67.80
56727;DHT22;42609;52.700;6.236;2022-07-24T13:54:12;30.40;67.90
56727;DHT22;42609;52.700;6.236;2022-07-24T13:56:38;30.40;68.50
56727;DHT22;42609;52.700;6.236;2022-07-24T13:59:04;30.50;68.50
56727;DHT22;42609;52.700;6.236;2022-07-24T14:01:30;30.50;68.00
56727;DHT22;42609;52.700;6.236;2022-07-24T14:03:55;30.40;67.40
56727;DHT22;42609;52.700;6.236;2022-07-24T14:06:21;30.40;67.90
56727;DHT22;42609;52.700;6.236;2022-07-24T14:08:47;30.40;68.50
56727;DHT22;42609;52.700;6.236;2022-07-24T14:11:12;30.40;68.20
56727;DHT22;42609;52.700;6.236;2022-07-24T14:13:38;30.60;68.30
56727;DHT22;42609;52.700;6.236;2022-07-24T14:16:04;30.60;68.30
56727;DHT22;42609;52.700;6.236;2022-07-24T14:18:30;30.70;68.20
56727;DHT22;42609;52.700;6.236;2022-07-24T14:20:55;30.70;67.90
56727;DHT22;42609;52.700;6.236;2022-07-24T14:23:21;30.80;68.20
56727;DHT22;42609;52.700;6.236;2022-07-24T14:25:47;30.80;67.90
56727;DHT22;42609;52.700;6.236;2022-07-24T14:28:14;30.90;67.60
56727;DHT22;42609;52.700;6.236;2022-07-24T14:30:40;30.90;67.20
56727;DHT22;42609;52.700;6.236;2022-07-24T14:33:05;30.90;66.30
56727;DHT22;42609;52.700;6.236;2022-07-24T14:35:31;30.90;66.70
56727;DHT22;42609;52.700;6.236;2022-07-24T14:37:58;30.90;66.60
56727;DHT22;42609;52.700;6.236;2022-07-24T14:40:24;30.80;67.20
56727;DHT22;42609;52.700;6.236;2022-07-24T14:42:50;30.90;67.10
56727;DHT22;42609;52.700;6.236;2022-07-24T14:45:15;30.90;66.60
56727;DHT22;42609;52.700;6.236;2022-07-24T14:47:41;30.90;66.00
56727;DHT22;42609;52.700;6.236;2022-07-24T14:50:07;31.10;66.80
56727;DHT22;42609;52.700;6.236;2022-07-24T14:52:34;30.90;66.80
56727;DHT22;42609;52.700;6.236;2022-07-24T14:55:00;31.00;67.00
56727;DHT22;42609;52.700;6.236;2022-07-24T14:57:25;31.20;67.40
56727;DHT22;42609;52.700;6.236;2022-07-24T14:59:51;31.00;66.70
56727;DHT22;42609;52.700;6.236;2022-07-24T15:02:16;31.20;67.20
56727;DHT22;42609;52.700;6.236;2022-07-24T15:04:42;31.10;66.80
56727;DHT22;42609;52.700;6.236;2022-07-24T15:07:08;31.10;67.20
56727;DHT22;42609;52.700;6.236;2022-07-24T15:09:34;31.10;66.80
56727;DHT22;42609;52.700;6.236;2022-07-24T15:11:59;31.10;66.00
56727;DHT22;42609;52.700;6.236;2022-07-24T15:14:25;31.00;66.50
56727;DHT22;42609;52.700;6.236;2022-07-24T15:16:51;31.10;66.80
56727;DHT22;42609;52.700;6.236;2022-07-24T15:19:16;31.20;66.70
56727;DHT22;42609;52.700;6.236;2022-07-24T15:21:42;31.00;66.00
56727;DHT22;42609;52.700;6.236;2022-07-24T15:24:08;31.00;66.10
56727;DHT22;42609;52.700;6.236;2022-07-24T15:26:34;31.10;66.80
56727;DHT22;42609;52.700;6.236;2022-07-24T15:29:00;31.20;66.60
56727;DHT22;42609;52.700;6.236;2022-07-24T15:31:25;31.20;66.30
56727;DHT22;42609;52.700;6.236;2022-07-24T15:33:51;31.10;66.10
56727;DHT22;42609;52.700;6.236;2022-07-24T15:36:17;31.10;66.50
56727;DHT22;42609;52.700;6.236;2022-07-24T15:38:42;31.20;66.10
56727;DHT22;42609;52.700;6.236;2022-07-24T15:41:08;31.20;66.50
56727;DHT22;42609;52.700;6.236;2022-07-24T15:43:34;31.20;66.80
56727;DHT22;42609;52.700;6.236;2022-07-24T15:45:59;31.20;66.90
56727;DHT22;42609;52.700;6.236;2022-07-24T15:48:25;31.40;66.70
56727;DHT22;42609;52.700;6.236;2022-07-24T15:50:50;31.40;66.20
56727;DHT22;42609;52.700;6.236;2022-07-24T15:53:16;31.40;66.30
56727;DHT22;42609;52.700;6.236;2022-07-24T15:55:42;31.50;66.20
56727;DHT22;42609;52.700;6.236;2022-07-24T15:58:07;31.50;65.60
56727;DHT22;42609;52.700;6.236;2022-07-24T16:00:33;31.60;65.90
56727;DHT22;42609;52.700;6.236;2022-07-24T16:02:59;31.70;65.60
56727;DHT22;42609;52.700;6.236;2022-07-24T16:05:25;31.60;65.80
56727;DHT22;42609;52.700;6.236;2022-07-24T16:07:51;31.50;66.00
56727;DHT22;42609;52.700;6.236;2022-07-24T16:10:18;31.70;66.40
56727;DHT22;42609;52.700;6.236;2022-07-24T16:12:44;31.70;67.00
56727;DHT22;42609;52.700;6.236;2022-07-24T16:15:10;31.70;66.30
56727;DHT22;42609;52.700;6.236;2022-07-24T16:17:37;31.80;66.20
56727;DHT22;42609;52.700;6.236;2022-07-24T16:20:03;31.80;66.80
56727;DHT22;42609;52.700;6.236;2022-07-24T16:22:29;31.70;66.00
56727;DHT22;42609;52.700;6.236;2022-07-24T16:24:55;31.40;65.80